createdAt,value
2022-09-02T00:01:12.716Z,19.84
2022-09-02T00:03:39.845Z,19.84
2022-09-02T00:06:06.586Z,19.79
2022-09-02T00:08:33.386Z,19.71
2022-09-02T00:11:01.319Z,19.71
2022-09-02T00:13:29.734Z,19.71
2022-09-02T00:15:56.322Z,19.69
2022-09-02T00:18:23.966Z,19.66
2022-09-02T00:20:50.963Z,19.65
2022-09-02T00:23:17.976Z,19.73
2022-09-02T00:25:45.493Z,19.73
2022-09-02T00:28:14.481Z,19.69
2022-09-02T00:30:43.330Z,19.69
2022-09-02T00:33:11.740Z,19.72
2022-09-02T00:35:38.840Z,19.64
2022-09-02T00:38:06.548Z,19.71
2022-09-02T00:40:34.039Z,19.64
2022-09-02T00:43:01.480Z,19.56
2022-09-02T00:45:28.274Z,19.52
2022-09-02T00:47:55.528Z,19.53
2022-09-02T00:50:29.845Z,19.45
2022-09-02T00:53:03.296Z,19.39
2022-09-02T00:55:34.824Z,19.38
2022-09-02T00:58:09.486Z,19.34
2022-09-02T01:00:42.401Z,19.33
2022-09-02T01:03:12.914Z,19.34
2022-09-02T01:05:45.900Z,19.33
2022-09-02T01:08:15.881Z,19.26
2022-09-02T01:10:43.291Z,19.16
2022-09-02T01:13:17.532Z,19.21
2022-09-02T01:15:55.570Z,19.18
2022-09-02T01:18:28.961Z,19.11
2022-09-02T01:20:58.176Z,18.82
2022-09-02T01:23:25.401Z,18.67
2022-09-02T01:25:52.587Z,18.70
2022-09-02T01:28:19.383Z,18.71
2022-09-02T01:30:49.977Z,18.64
2022-09-02T01:33:18.700Z,18.32
2022-09-02T01:35:46.175Z,18.17
2022-09-02T01:38:13.337Z,18.16
2022-09-02T01:40:41.079Z,18.19
2022-09-02T01:43:14.628Z,18.31
2022-09-02T01:45:43.566Z,18.09
2022-09-02T01:48:12.664Z,18.04
2022-09-02T01:50:47.015Z,18.13
2022-09-02T01:53:14.822Z,18.27
2022-09-02T01:55:42.096Z,18.37
2022-09-02T01:58:09.050Z,18.17
2022-09-02T02:00:36.344Z,18.27
2022-09-02T02:03:03.674Z,18.41
2022-09-02T02:05:30.928Z,18.07
2022-09-02T02:07:58.540Z,18.22
2022-09-02T02:10:25.873Z,18.30
2022-09-02T02:12:52.735Z,18.34
2022-09-02T02:15:21.769Z,18.40
2022-09-02T02:17:49.046Z,18.51
2022-09-02T02:20:17.986Z,18.17
2022-09-02T02:22:45.008Z,18.07
2022-09-02T02:25:14.825Z,18.31
2022-09-02T02:27:43.813Z,18.29
2022-09-02T02:30:13.191Z,18.34
2022-09-02T02:32:40.388Z,18.27
2022-09-02T02:35:07.759Z,18.07
2022-09-02T02:37:35.379Z,18.08
2022-09-02T02:40:02.193Z,18.06
2022-09-02T02:42:29.973Z,18.12
2022-09-02T02:44:56.696Z,17.93
2022-09-02T02:47:23.414Z,17.90
2022-09-02T02:49:50.085Z,17.97
2022-09-02T02:52:16.893Z,17.72
2022-09-02T02:54:43.553Z,17.86
2022-09-02T02:57:11.071Z,17.91
2022-09-02T02:59:38.097Z,17.80
2022-09-02T03:02:06.885Z,17.76
2022-09-02T03:04:35.437Z,17.58
2022-09-02T03:07:02.999Z,17.71
2022-09-02T03:09:30.703Z,17.63
2022-09-02T03:11:57.829Z,17.62
2022-09-02T03:14:26.129Z,17.72
2022-09-02T03:16:53.068Z,17.74
2022-09-02T03:19:20.054Z,17.52
2022-09-02T03:21:46.756Z,17.59
2022-09-02T03:24:13.583Z,17.71
2022-09-02T03:26:42.903Z,17.72
2022-09-02T03:29:11.299Z,17.73
2022-09-02T03:31:38.410Z,17.75
2022-09-02T03:34:06.169Z,17.62
2022-09-02T03:36:38.648Z,17.47
2022-09-02T03:39:10.215Z,17.59
2022-09-02T03:41:42.494Z,17.40
2022-09-02T03:44:11.595Z,17.51
2022-09-02T03:46:39.244Z,17.62
2022-09-02T03:49:08.478Z,17.41
2022-09-02T03:51:40.751Z,17.44
2022-09-02T03:54:10.227Z,17.40
2022-09-02T03:56:37.870Z,17.55
2022-09-02T03:59:05.316Z,17.59
2022-09-02T04:01:34.390Z,17.60
2022-09-02T04:04:05.967Z,17.57
2022-09-02T04:06:34.297Z,17.57
2022-09-02T04:09:04.545Z,17.57
2022-09-02T04:11:32.492Z,17.48
2022-09-02T04:13:59.908Z,17.53
2022-09-02T04:16:29.194Z,17.59
2022-09-02T04:19:01.912Z,17.63
2022-09-02T04:21:31.801Z,17.64
2022-09-02T04:23:58.630Z,17.63
2022-09-02T04:26:25.759Z,17.60
2022-09-02T04:28:55.607Z,17.58
2022-09-02T04:31:25.753Z,17.42
2022-09-02T04:33:54.076Z,17.33
2022-09-02T04:36:22.310Z,17.47
2022-09-02T04:38:53.361Z,17.44
2022-09-02T04:41:27.932Z,17.47
2022-09-02T04:43:59.712Z,17.53
2022-09-02T04:46:34.629Z,17.47
2022-09-02T04:49:04.845Z,17.52
2022-09-02T04:51:32.966Z,17.53
2022-09-02T04:54:01.906Z,17.56
2022-09-02T04:56:32.233Z,17.62
2022-09-02T04:59:00.669Z,17.64
2022-09-02T05:01:32.450Z,17.53
2022-09-02T05:04:09.579Z,17.47
2022-09-02T05:06:44.034Z,17.43
2022-09-02T05:09:15.410Z,17.49
2022-09-02T05:11:42.551Z,17.53
2022-09-02T05:14:09.792Z,17.60
2022-09-02T05:16:40.464Z,17.63
2022-09-02T05:19:13.642Z,17.67
2022-09-02T05:21:46.927Z,17.64
2022-09-02T05:24:26.266Z,17.62
2022-09-02T05:26:54.983Z,17.64
2022-09-02T05:29:23.642Z,17.59
2022-09-02T05:31:50.951Z,17.69
2022-09-02T05:34:17.932Z,17.60
2022-09-02T05:36:45.569Z,17.59
2022-09-02T05:39:12.443Z,17.59
2022-09-02T05:41:39.590Z,17.59
2022-09-02T05:44:08.459Z,17.51
2022-09-02T05:46:36.133Z,17.61
2022-09-02T05:49:07.228Z,17.65
2022-09-02T05:51:44.906Z,17.71
2022-09-02T05:54:19.838Z,17.75
2022-09-02T05:56:51.442Z,17.73
2022-09-02T05:59:21.089Z,17.80
2022-09-02T06:01:48.929Z,17.62
2022-09-02T06:04:15.993Z,17.70
2022-09-02T06:06:43.367Z,17.68
2022-09-02T06:09:13.011Z,17.57
2022-09-02T06:11:44.565Z,17.59
2022-09-02T06:14:18.996Z,17.56
2022-09-02T06:16:46.641Z,17.48
2022-09-02T06:19:21.669Z,17.50
2022-09-02T06:21:52.972Z,17.45
2022-09-02T06:24:20.730Z,17.59
2022-09-02T06:26:51.108Z,17.80
2022-09-02T06:29:26.002Z,17.85
2022-09-02T06:31:54.580Z,17.73
2022-09-02T06:34:27.271Z,17.80
2022-09-02T06:36:57.493Z,17.84
2022-09-02T06:39:25.915Z,17.69
2022-09-02T06:41:55.823Z,17.78
2022-09-02T06:44:24.455Z,17.88
2022-09-02T06:46:57.453Z,17.92
2022-09-02T06:49:26.233Z,18.01
2022-09-02T06:51:56.981Z,18.01
2022-09-02T06:54:29.309Z,18.01
2022-09-02T06:57:06.573Z,18.08
2022-09-02T06:59:36.416Z,18.13
2022-09-02T07:02:04.115Z,18.09
2022-09-02T07:05:10.270Z,18.14
2022-09-02T07:07:40.056Z,18.14
2022-09-02T07:10:13.285Z,18.13
2022-09-02T07:12:44.418Z,18.17
2022-09-02T07:15:14.602Z,18.19
2022-09-02T07:17:42.691Z,18.22
2022-09-02T07:20:14.362Z,18.23
2022-09-02T07:25:22.857Z,18.32
2022-09-02T07:27:52.118Z,18.34
2022-09-02T07:30:19.550Z,18.35
2022-09-02T07:32:49.868Z,18.38
2022-09-02T07:35:20.251Z,18.37
2022-09-02T07:37:47.753Z,18.41
2022-09-02T07:40:16.235Z,18.43
2022-09-02T07:42:43.765Z,18.39
2022-09-02T07:45:12.894Z,18.43
2022-09-02T07:47:41.433Z,18.50
2022-09-02T07:50:20.290Z,18.58
2022-09-02T07:52:54.570Z,18.63
2022-09-02T07:55:23.615Z,18.67
2022-09-02T07:57:52.371Z,18.71
2022-09-02T08:00:20.611Z,18.71
2022-09-02T08:02:50.653Z,18.77
2022-09-02T08:05:23.600Z,18.83
2022-09-02T08:07:50.897Z,18.86
2022-09-02T08:10:20.150Z,18.99
2022-09-02T08:12:47.795Z,19.09
2022-09-02T08:15:15.671Z,19.12
2022-09-02T08:17:44.230Z,19.28
2022-09-02T08:20:12.773Z,19.44
2022-09-02T08:22:40.426Z,19.58
2022-09-02T08:25:08.287Z,19.62
2022-09-02T08:27:36.594Z,19.71
2022-09-02T08:30:11.987Z,19.93
2022-09-02T08:32:40.463Z,19.94
2022-09-02T08:35:10.732Z,19.95
2022-09-02T08:37:38.395Z,19.93
2022-09-02T08:40:13.192Z,19.90
2022-09-02T08:42:53.371Z,19.86
2022-09-02T08:45:28.459Z,19.91
2022-09-02T08:48:12.724Z,19.95
2022-09-02T08:50:44.808Z,20.00
2022-09-02T08:53:23.845Z,19.99
2022-09-02T08:55:55.969Z,20.02
2022-09-02T08:58:33.170Z,20.09
2022-09-02T09:01:06.238Z,20.22
2022-09-02T09:04:10.873Z,20.24
2022-09-02T09:07:05.507Z,20.16
2022-09-02T09:10:00.888Z,20.22
2022-09-02T09:12:39.858Z,20.30
2022-09-02T09:15:31.753Z,20.44
2022-09-02T09:18:00.655Z,20.75
2022-09-02T09:20:33.825Z,20.87
2022-09-02T09:23:05.969Z,20.79
2022-09-02T09:25:32.886Z,20.68
2022-09-02T09:28:00.775Z,20.72
2022-09-02T09:30:29.180Z,20.81
2022-09-02T09:32:59.839Z,20.98
2022-09-02T09:35:34.365Z,21.10
2022-09-02T09:38:13.414Z,21.20
2022-09-02T09:40:40.511Z,21.16
2022-09-02T09:43:14.786Z,21.19
2022-09-02T09:45:43.984Z,21.22
2022-09-02T09:48:17.168Z,21.29
2022-09-02T09:50:48.542Z,21.36
2022-09-02T09:53:18.996Z,21.35
2022-09-02T09:56:15.654Z,21.40
2022-09-02T09:58:44.516Z,21.42
2022-09-02T10:01:18.149Z,21.36
2022-09-02T10:03:54.417Z,21.30
2022-09-02T10:06:43.506Z,21.29
2022-09-02T10:09:19.704Z,21.35
2022-09-02T10:12:12.355Z,21.41
2022-09-02T10:14:48.150Z,21.43
2022-09-02T10:17:34.402Z,21.47
2022-09-02T10:20:11.384Z,21.50
2022-09-02T10:22:59.277Z,21.52
2022-09-02T10:25:33.226Z,21.52
2022-09-02T10:28:04.195Z,21.56
2022-09-02T10:30:52.236Z,21.53
2022-09-02T10:33:54.117Z,21.53
2022-09-02T10:36:28.626Z,21.59
2022-09-02T10:39:06.086Z,21.70
2022-09-02T10:44:33.785Z,21.91
2022-09-02T10:47:04.289Z,22.02
2022-09-02T10:50:08.598Z,22.12
2022-09-02T10:52:59.468Z,22.32
2022-09-02T10:56:00.318Z,22.45
2022-09-02T10:58:54.435Z,22.72
2022-09-02T11:01:46.492Z,22.77
2022-09-02T11:04:42.005Z,22.83
2022-09-02T11:07:17.025Z,22.83
2022-09-02T11:09:49.186Z,22.78
2022-09-02T11:12:22.108Z,22.75
2022-09-02T11:15:12.865Z,22.83
2022-09-02T11:18:20.206Z,22.99
2022-09-02T11:21:09.485Z,22.95
2022-09-02T11:23:51.426Z,22.92
2022-09-02T11:26:24.817Z,22.83
2022-09-02T11:29:01.469Z,22.98
2022-09-02T11:31:38.896Z,22.94
2022-09-02T11:34:35.344Z,23.01
2022-09-02T11:37:09.460Z,22.96
2022-09-02T11:40:11.724Z,22.98
2022-09-02T11:43:02.472Z,23.07
2022-09-02T11:45:56.969Z,23.10
2022-09-02T11:48:45.511Z,23.16
2022-09-02T11:51:30.512Z,23.33
2022-09-02T11:54:00.799Z,23.46
2022-09-02T11:56:31.076Z,23.39
2022-09-02T11:58:57.746Z,23.37
2022-09-02T12:01:47.493Z,23.34
2022-09-02T12:07:09.469Z,23.48
2022-09-02T12:09:51.786Z,23.46
2022-09-02T12:12:38.225Z,23.61
2022-09-02T12:15:05.345Z,23.79
2022-09-02T12:17:38.071Z,23.82
2022-09-02T12:20:09.007Z,23.88
2022-09-02T12:22:38.881Z,23.86
2022-09-02T12:25:26.943Z,23.80
2022-09-02T12:28:21.759Z,23.98
2022-09-02T12:31:02.049Z,24.03
2022-09-02T12:33:40.715Z,23.95
2022-09-02T12:36:09.003Z,23.97
2022-09-02T12:38:40.966Z,24.02
2022-09-02T12:41:28.898Z,23.95
2022-09-02T12:44:22.816Z,23.99
2022-09-02T12:46:55.560Z,23.88
2022-09-02T12:49:38.961Z,23.99
2022-09-02T12:52:11.603Z,23.99
2022-09-02T12:54:38.935Z,23.92
2022-09-02T12:57:07.715Z,23.93
2022-09-02T12:59:38.276Z,23.93
2022-09-02T13:02:13.999Z,23.86
2022-09-02T13:04:56.709Z,23.88
2022-09-02T13:07:56.836Z,23.84
2022-09-02T13:10:51.389Z,23.99
2022-09-02T13:13:36.323Z,24.20
2022-09-02T13:16:30.529Z,24.30
2022-09-02T13:19:03.220Z,24.40
2022-09-02T13:21:56.186Z,24.37
2022-09-02T13:25:00.956Z,24.39
2022-09-02T13:28:02.883Z,24.30
2022-09-02T13:30:51.473Z,24.16
2022-09-02T13:33:19.152Z,24.15
2022-09-02T13:35:46.237Z,24.12
2022-09-02T13:38:15.612Z,24.13
2022-09-02T13:40:46.179Z,24.12
2022-09-02T13:43:13.008Z,24.19
2022-09-02T13:45:40.014Z,24.31
2022-09-02T13:48:25.038Z,24.41
2022-09-02T13:50:54.946Z,24.49
2022-09-02T13:56:25.539Z,24.57
2022-09-02T13:58:56.658Z,24.62
2022-09-02T14:01:35.606Z,24.62
2022-09-02T14:04:11.645Z,24.58
2022-09-02T14:06:42.045Z,24.62
2022-09-02T14:09:21.136Z,24.63
2022-09-02T14:11:49.514Z,24.68
2022-09-02T14:14:19.840Z,24.69
2022-09-02T14:16:46.604Z,24.51
2022-09-02T14:19:16.340Z,24.54
2022-09-02T14:21:50.894Z,24.55
2022-09-02T14:24:26.772Z,24.66
2022-09-02T14:26:55.651Z,24.63
2022-09-02T14:29:23.713Z,24.58
2022-09-02T14:32:05.577Z,24.49
2022-09-02T14:34:46.070Z,24.50
2022-09-02T14:37:26.679Z,24.43
2022-09-02T14:40:08.355Z,24.45
2022-09-02T14:42:56.587Z,24.43
2022-09-02T14:45:25.637Z,24.44
2022-09-02T14:47:52.832Z,24.39
2022-09-02T14:50:21.884Z,24.39
2022-09-02T14:52:53.576Z,24.44
2022-09-02T14:55:39.049Z,24.53
2022-09-02T14:58:05.674Z,24.64
2022-09-02T15:00:34.704Z,24.67
2022-09-02T15:03:01.752Z,24.68
2022-09-02T15:05:28.468Z,24.71
2022-09-02T15:07:55.133Z,24.79
2022-09-02T15:10:22.073Z,24.70
2022-09-02T15:12:53.641Z,24.66
2022-09-02T15:15:20.826Z,24.72
2022-09-02T15:17:47.523Z,24.71
2022-09-02T15:20:15.496Z,24.73
2022-09-02T15:22:43.218Z,24.82
2022-09-02T15:25:10.038Z,24.77
2022-09-02T15:27:37.267Z,24.69
2022-09-02T15:30:05.730Z,24.74
2022-09-02T15:32:32.676Z,24.74
2022-09-02T15:34:59.583Z,24.79
2022-09-02T15:37:27.521Z,24.80
2022-09-02T15:39:54.403Z,24.78
2022-09-02T15:42:21.219Z,24.72
2022-09-02T15:44:47.914Z,24.70
2022-09-02T15:47:15.092Z,24.71
2022-09-02T15:49:41.742Z,24.71
2022-09-02T15:52:08.707Z,24.70
2022-09-02T15:54:35.469Z,24.72
2022-09-02T15:57:02.235Z,24.74
2022-09-02T15:59:29.080Z,24.77
2022-09-02T16:01:57.209Z,24.82
2022-09-02T16:04:24.643Z,24.92
2022-09-02T16:06:54.897Z,24.82
2022-09-02T16:09:22.198Z,24.82
2022-09-02T16:11:51.808Z,24.88
2022-09-02T16:14:21.049Z,24.72
2022-09-02T16:16:49.674Z,24.71
2022-09-02T16:19:20.291Z,24.66
2022-09-02T16:21:47.725Z,24.68
2022-09-02T16:24:14.716Z,24.66
2022-09-02T16:26:42.128Z,24.73
2022-09-02T16:29:15.887Z,24.83
2022-09-02T16:31:47.747Z,24.82
2022-09-02T16:34:24.095Z,24.86
2022-09-02T16:36:51.460Z,24.79
2022-09-02T16:39:19.726Z,24.75
2022-09-02T16:41:49.193Z,24.76
2022-09-02T16:44:18.896Z,24.77
2022-09-02T16:46:47.363Z,24.72
2022-09-02T16:49:18.377Z,24.67
2022-09-02T16:51:46.165Z,24.66
2022-09-02T16:54:17.513Z,24.71
2022-09-02T16:56:44.701Z,24.73
2022-09-02T16:59:12.767Z,24.74
2022-09-02T17:01:40.520Z,24.74
2022-09-02T17:04:08.982Z,24.71
2022-09-02T17:06:41.291Z,24.65
2022-09-02T17:09:09.201Z,24.64
2022-09-02T17:11:39.478Z,24.64
2022-09-02T17:14:12.262Z,24.70
2022-09-02T17:16:48.342Z,24.66
2022-09-02T17:19:21.187Z,24.65
2022-09-02T17:21:54.261Z,24.63
2022-09-02T17:24:23.837Z,24.65
2022-09-02T17:26:54.200Z,24.67
2022-09-02T17:32:09.589Z,24.65
2022-09-02T17:34:37.047Z,24.63
2022-09-02T17:37:05.047Z,24.64
2022-09-02T17:39:33.771Z,24.66
2022-09-02T17:42:00.666Z,24.56
2022-09-02T17:44:35.992Z,24.51
2022-09-02T17:47:05.945Z,24.51
2022-09-02T17:49:36.174Z,24.44
2022-09-02T17:52:07.563Z,24.36
2022-09-02T17:54:36.289Z,24.20
2022-09-02T17:57:33.330Z,24.12
2022-09-02T18:00:06.647Z,24.03
2022-09-02T18:03:03.149Z,23.91
2022-09-02T18:05:53.245Z,23.79
2022-09-02T18:08:39.522Z,23.75
2022-09-02T18:11:07.726Z,23.64
2022-09-02T18:13:47.617Z,23.51
2022-09-02T18:16:32.958Z,23.39
2022-09-02T18:19:25.238Z,23.28
2022-09-02T18:22:28.885Z,23.19
2022-09-02T18:25:27.370Z,23.07
2022-09-02T18:28:03.871Z,22.98
2022-09-02T18:30:41.548Z,22.88
2022-09-02T18:33:20.878Z,22.82
2022-09-02T18:36:11.042Z,22.72
2022-09-02T18:38:48.887Z,22.64
2022-09-02T18:41:22.881Z,22.64
2022-09-02T18:44:14.982Z,22.65
2022-09-02T18:46:58.399Z,22.59
2022-09-02T18:49:28.447Z,22.66
2022-09-02T18:52:00.303Z,22.63
2022-09-02T18:54:34.011Z,22.59
2022-09-02T18:57:05.616Z,22.45
2022-09-02T19:00:07.460Z,22.41
2022-09-02T19:03:03.667Z,22.36
2022-09-02T19:05:33.454Z,22.34
2022-09-02T19:08:24.696Z,22.31
2022-09-02T19:11:06.819Z,22.46
2022-09-02T19:13:55.511Z,22.55
2022-09-02T19:16:25.273Z,22.49
2022-09-02T19:18:52.284Z,22.45
2022-09-02T19:21:30.025Z,22.58
2022-09-02T19:23:56.873Z,22.57
2022-09-02T19:26:24.128Z,22.56
2022-09-02T19:28:52.088Z,22.64
2022-09-02T19:31:21.909Z,22.64
2022-09-02T19:33:52.603Z,22.65
2022-09-02T19:36:22.989Z,22.69
2022-09-02T19:38:54.089Z,22.72
2022-09-02T19:41:21.028Z,22.72
2022-09-02T19:43:47.881Z,22.73
2022-09-02T19:46:41.478Z,22.71
2022-09-02T19:49:01.270Z,22.69
2022-09-02T19:51:27.949Z,22.68
2022-09-02T19:53:56.427Z,22.69
2022-09-02T19:56:23.088Z,22.71
2022-09-02T19:58:49.816Z,22.70
2022-09-02T20:01:16.456Z,22.67
2022-09-02T20:03:43.195Z,22.64
2022-09-02T20:06:09.823Z,22.62
2022-09-02T20:08:36.506Z,22.65
2022-09-02T20:11:05.190Z,22.60
2022-09-02T20:13:41.021Z,22.52
2022-09-02T20:16:20.256Z,22.51
2022-09-02T20:18:48.711Z,22.46
2022-09-02T20:21:43.868Z,22.49
2022-09-02T20:24:14.618Z,22.47
2022-09-02T20:26:58.853Z,22.41
2022-09-02T20:29:39.441Z,22.38
2022-09-02T20:32:53.881Z,22.32
2022-09-02T20:35:58.473Z,22.26
2022-09-02T20:39:03.743Z,22.22
2022-09-02T20:42:16.580Z,22.08
2022-09-02T20:45:10.418Z,22.11
2022-09-02T20:48:25.085Z,22.14
2022-09-02T20:51:05.441Z,22.15
2022-09-02T20:53:50.808Z,22.12
2022-09-02T20:56:26.637Z,22.11
2022-09-02T20:59:02.231Z,22.06
2022-09-02T21:01:35.923Z,21.99
2022-09-02T21:04:28.915Z,22.01
2022-09-02T21:07:19.899Z,21.97
2022-09-02T21:09:51.000Z,21.96
2022-09-02T21:12:41.162Z,21.93
2022-09-02T21:15:08.719Z,21.98
2022-09-02T21:17:38.000Z,21.96
2022-09-02T21:20:38.063Z,21.95
2022-09-02T21:23:11.798Z,21.90
2022-09-02T21:25:52.723Z,21.92
2022-09-02T21:28:26.332Z,21.90
2022-09-02T21:30:59.860Z,21.78
2022-09-02T21:33:28.896Z,21.78
2022-09-02T21:35:58.820Z,21.76
2022-09-02T21:38:38.282Z,21.69
2022-09-02T21:41:07.902Z,21.67
2022-09-02T21:43:58.927Z,21.64
2022-09-02T21:46:50.119Z,21.62
2022-09-02T21:49:54.039Z,21.67
2022-09-02T21:52:29.819Z,21.56
2022-09-02T21:55:19.144Z,21.50
2022-09-02T21:58:10.886Z,21.52
2022-09-02T22:00:45.807Z,21.46
2022-09-02T22:03:41.386Z,21.30
2022-09-02T22:06:31.263Z,21.25
2022-09-02T22:09:10.814Z,21.27
2022-09-02T22:11:43.272Z,21.30
2022-09-02T22:14:18.742Z,21.31
2022-09-02T22:16:51.538Z,21.33
2022-09-02T22:19:18.773Z,21.27
2022-09-02T22:21:53.370Z,21.26
2022-09-02T22:24:29.018Z,21.28
2022-09-02T22:27:06.234Z,21.26
2022-09-02T22:29:46.256Z,21.23
2022-09-02T22:32:17.354Z,21.24
2022-09-02T22:34:50.574Z,21.28
2022-09-02T22:37:24.288Z,21.18
2022-09-02T22:39:53.993Z,21.18
2022-09-02T22:42:33.163Z,21.16
2022-09-02T22:45:24.651Z,21.18
2022-09-02T22:48:17.579Z,21.15
2022-09-02T22:51:10.403Z,21.13
2022-09-02T22:53:37.247Z,21.14
2022-09-02T22:56:08.037Z,21.10
2022-09-02T22:59:26.440Z,21.02
2022-09-02T23:02:05.609Z,21.02
2022-09-02T23:04:54.984Z,21.00
2022-09-02T23:07:24.017Z,20.98
2022-09-02T23:09:55.980Z,20.92
2022-09-02T23:13:05.340Z,20.90
2022-09-02T23:15:59.844Z,20.90
2022-09-02T23:18:44.716Z,20.91
2022-09-02T23:21:26.290Z,20.96
2022-09-02T23:24:19.727Z,20.93
2022-09-02T23:27:03.479Z,20.81
2022-09-02T23:29:31.236Z,20.81
2022-09-02T23:32:31.885Z,20.79
2022-09-02T23:35:20.366Z,20.74
2022-09-02T23:38:02.008Z,20.71
2022-09-02T23:40:38.261Z,20.74
2022-09-02T23:43:05.096Z,20.68
2022-09-02T23:45:33.757Z,20.64
2022-09-02T23:48:41.882Z,20.63
2022-09-02T23:51:22.902Z,20.56
2022-09-02T23:54:05.010Z,20.56
2022-09-02T23:56:41.615Z,20.58
2022-09-02T23:59:24.322Z,20.57
